createdAt,value
2023-03-04T00:00:57.160Z,73.00
2023-03-04T00:03:24.775Z,73.00
2023-03-04T00:05:52.296Z,73.20
2023-03-04T00:08:19.855Z,73.40
2023-03-04T00:10:47.425Z,73.30
2023-03-04T00:13:15.070Z,72.90
2023-03-04T00:15:42.603Z,73.00
2023-03-04T00:18:10.167Z,73.30
2023-03-04T00:20:37.648Z,72.40
2023-03-04T00:23:05.372Z,73.20
2023-03-04T00:25:33.553Z,73.50
2023-03-04T00:28:01.308Z,74.00
2023-03-04T00:30:28.863Z,74.20
2023-03-04T00:32:56.386Z,74.20
2023-03-04T00:35:24.794Z,74.10
2023-03-04T00:37:54.681Z,74.00
2023-03-04T00:40:22.216Z,73.50
2023-03-04T00:42:49.722Z,73.50
2023-03-04T00:45:17.369Z,74.20
2023-03-04T00:47:44.870Z,74.60
2023-03-04T00:50:12.428Z,74.50
2023-03-04T00:52:39.958Z,75.00
2023-03-04T00:55:08.720Z,74.90
2023-03-04T00:57:36.266Z,75.20
2023-03-04T01:00:05.111Z,75.70
2023-03-04T01:02:32.589Z,76.10
2023-03-04T01:05:00.133Z,75.90
2023-03-04T01:07:27.670Z,76.40
2023-03-04T01:09:55.323Z,76.10
2023-03-04T01:12:22.825Z,76.20
2023-03-04T01:14:50.355Z,76.70
2023-03-04T01:17:17.888Z,76.80
2023-03-04T01:19:45.487Z,77.00
2023-03-04T01:22:15.047Z,77.50
2023-03-04T01:24:43.364Z,78.10
2023-03-04T01:27:11.352Z,78.20
2023-03-04T01:29:38.962Z,78.40
2023-03-04T01:32:06.504Z,78.30
2023-03-04T01:34:34.283Z,78.30
2023-03-04T01:37:01.949Z,78.50
2023-03-04T01:39:29.531Z,78.60
2023-03-04T01:41:57.161Z,78.40
2023-03-04T01:44:25.419Z,78.70
2023-03-04T01:46:55.585Z,78.80
2023-03-04T01:49:25.416Z,78.70
2023-03-04T01:51:54.640Z,79.50
2023-03-04T01:54:22.997Z,80.00
2023-03-04T01:56:52.580Z,80.10
2023-03-04T01:59:23.601Z,81.00
2023-03-04T02:01:59.067Z,81.20
2023-03-04T02:04:31.156Z,82.20
2023-03-04T02:07:01.163Z,81.70
2023-03-04T02:09:30.600Z,82.20
2023-03-04T02:11:58.660Z,82.80
2023-03-04T02:14:26.389Z,82.90
2023-03-04T02:16:53.977Z,84.70
2023-03-04T02:19:53.687Z,85.20
2023-03-04T02:22:21.222Z,85.40
2023-03-04T02:25:06.425Z,86.00
2023-03-04T02:27:34.248Z,86.40
2023-03-04T02:30:02.001Z,87.60
2023-03-04T02:32:29.577Z,88.60
2023-03-04T02:34:57.359Z,90.20
2023-03-04T02:37:25.077Z,89.10
2023-03-04T02:39:54.734Z,89.30
2023-03-04T02:42:22.255Z,89.70
2023-03-04T02:44:50.384Z,89.20
2023-03-04T02:47:20.267Z,89.30
2023-03-04T02:49:49.488Z,89.00
2023-03-04T02:52:23.964Z,89.10
2023-03-04T02:54:51.903Z,90.00
2023-03-04T02:57:20.086Z,90.70
2023-03-04T02:59:52.574Z,90.90
2023-03-04T03:02:23.507Z,91.10
2023-03-04T03:04:52.155Z,91.50
2023-03-04T03:07:21.520Z,91.60
2023-03-04T03:09:49.870Z,91.50
2023-03-04T03:12:18.738Z,91.30
2023-03-04T03:14:46.236Z,91.90
2023-03-04T03:17:17.228Z,92.60
2023-03-04T03:19:44.908Z,92.80
2023-03-04T03:22:13.039Z,93.00
2023-03-04T03:24:41.335Z,94.00
2023-03-04T03:27:08.993Z,93.60
2023-03-04T03:29:36.598Z,94.20
2023-03-04T03:32:08.099Z,95.20
2023-03-04T03:34:35.690Z,95.70
2023-03-04T03:37:03.311Z,95.60
2023-03-04T03:39:30.839Z,97.10
2023-03-04T03:41:58.365Z,97.20
2023-03-04T03:44:25.963Z,97.20
2023-03-04T03:46:53.531Z,98.90
2023-03-04T03:49:21.557Z,99.90
2023-03-04T03:51:49.328Z,99.90
2023-03-04T03:54:16.830Z,99.90
2023-03-04T03:56:44.438Z,99.90
2023-03-04T03:59:12.006Z,99.90
2023-03-04T04:01:39.550Z,99.90
2023-03-04T04:04:07.128Z,99.90
2023-03-04T04:06:34.623Z,99.90
2023-03-04T04:09:02.133Z,99.90
2023-03-04T04:11:29.653Z,99.90
2023-03-04T04:13:57.189Z,99.90
2023-03-04T04:16:25.028Z,99.90
2023-03-04T04:18:52.601Z,99.90
2023-03-04T04:21:20.220Z,99.90
2023-03-04T04:23:47.780Z,99.90
2023-03-04T04:26:15.317Z,99.90
2023-03-04T04:28:42.835Z,99.90
2023-03-04T04:31:10.387Z,99.90
2023-03-04T04:33:38.278Z,99.90
2023-03-04T04:36:06.178Z,99.90
2023-03-04T04:38:33.673Z,99.90
2023-03-04T04:41:01.313Z,99.90
2023-03-04T04:43:28.807Z,99.90
2023-03-04T04:45:58.980Z,99.90
2023-03-04T04:48:26.585Z,99.90
2023-03-04T04:50:56.359Z,99.90
2023-03-04T04:53:23.946Z,99.90
2023-03-04T04:55:51.451Z,99.90
2023-03-04T04:58:18.925Z,99.90
2023-03-04T05:00:46.424Z,99.90
2023-03-04T05:03:13.921Z,99.90
2023-03-04T05:05:42.173Z,99.90
2023-03-04T05:08:09.641Z,99.90
2023-03-04T05:10:37.140Z,99.90
2023-03-04T05:13:04.612Z,99.90
2023-03-04T05:15:32.135Z,99.90
2023-03-04T05:17:59.637Z,99.90
2023-03-04T05:20:27.816Z,99.90
2023-03-04T05:22:55.381Z,99.90
2023-03-04T05:25:22.887Z,99.90
2023-03-04T05:27:50.380Z,99.90
2023-03-04T05:30:18.353Z,99.90
2023-03-04T05:32:45.901Z,99.90
2023-03-04T05:35:13.448Z,99.90
2023-03-04T05:37:41.089Z,99.90
2023-03-04T05:40:09.837Z,99.90
2023-03-04T05:42:37.345Z,99.90
2023-03-04T05:45:06.901Z,99.90
2023-03-04T05:47:34.526Z,99.90
2023-03-04T05:50:02.025Z,99.90
2023-03-04T05:52:29.617Z,99.90
2023-03-04T05:54:57.122Z,99.90
2023-03-04T05:57:24.790Z,99.90
2023-03-04T05:59:52.282Z,99.90
2023-03-04T06:02:19.879Z,99.90
2023-03-04T06:04:47.696Z,99.90
2023-03-04T06:07:15.233Z,99.90
2023-03-04T06:09:45.071Z,99.90
2023-03-04T06:12:13.074Z,99.90
2023-03-04T06:14:40.553Z,99.90
2023-03-04T06:17:08.170Z,99.90
2023-03-04T06:19:37.907Z,99.90
2023-03-04T06:22:05.770Z,99.90
2023-03-04T06:24:33.306Z,99.90
2023-03-04T06:27:00.904Z,99.90
2023-03-04T06:29:28.500Z,99.90
2023-03-04T06:31:56.086Z,99.90
2023-03-04T06:34:23.710Z,99.90
2023-03-04T06:36:51.395Z,99.90
2023-03-04T06:39:19.359Z,99.90
2023-03-04T06:41:46.857Z,99.90
2023-03-04T06:44:14.444Z,99.90
2023-03-04T06:46:42.633Z,99.90
2023-03-04T06:49:10.319Z,99.90
2023-03-04T06:51:37.944Z,99.90
2023-03-04T06:54:05.995Z,99.90
2023-03-04T06:56:33.627Z,99.90
2023-03-04T06:59:01.163Z,99.90
2023-03-04T07:01:29.739Z,99.90
2023-03-04T07:03:58.080Z,99.90
2023-03-04T07:06:28.215Z,99.90
2023-03-04T07:08:56.863Z,99.90
2023-03-04T07:11:25.033Z,99.90
2023-03-04T07:13:53.271Z,99.90
2023-03-04T07:16:23.511Z,99.90
2023-03-04T07:18:51.174Z,99.90
2023-03-04T07:21:19.122Z,99.90
2023-03-04T07:23:46.856Z,99.90
2023-03-04T07:26:14.862Z,99.90
2023-03-04T07:28:42.792Z,99.90
2023-03-04T07:31:19.024Z,99.90
2023-03-04T07:33:46.708Z,99.90
2023-03-04T07:36:16.882Z,99.90
2023-03-04T07:38:46.780Z,99.90
2023-03-04T07:41:14.936Z,99.90
2023-03-04T07:43:42.577Z,99.90
2023-03-04T07:46:11.049Z,99.90
2023-03-04T07:48:38.666Z,99.90
2023-03-04T07:51:09.198Z,99.90
2023-03-04T07:53:38.695Z,99.90
2023-03-04T07:56:08.721Z,99.90
2023-03-04T07:58:36.332Z,99.90
2023-03-04T08:01:14.203Z,99.90
2023-03-04T08:03:42.223Z,99.90
2023-03-04T08:06:13.178Z,99.90
2023-03-04T08:08:40.742Z,99.90
2023-03-04T08:11:12.191Z,99.90
2023-03-04T08:13:39.989Z,99.90
2023-03-04T08:16:08.106Z,99.90
2023-03-04T08:18:35.744Z,99.90
2023-03-04T08:21:07.836Z,99.90
2023-03-04T08:23:35.486Z,99.90
2023-03-04T08:26:12.229Z,99.90
2023-03-04T08:28:40.028Z,99.90
2023-03-04T08:31:07.671Z,99.90
2023-03-04T08:33:35.462Z,99.90
2023-03-04T08:36:03.170Z,99.90
2023-03-04T08:38:31.852Z,99.90
2023-03-04T08:40:59.471Z,99.90
2023-03-04T08:43:27.229Z,99.90
2023-03-04T08:45:54.920Z,99.90
2023-03-04T08:48:23.195Z,99.90
2023-03-04T08:50:51.196Z,99.90
2023-03-04T08:53:20.623Z,99.90
2023-03-04T08:55:49.083Z,99.90
2023-03-04T08:58:16.582Z,99.90
2023-03-04T09:00:48.335Z,99.90
2023-03-04T09:03:19.391Z,99.90
2023-03-04T09:05:48.408Z,99.90
2023-03-04T09:08:16.980Z,99.90
2023-03-04T09:10:46.525Z,99.90
2023-03-04T09:13:17.373Z,99.90
2023-03-04T09:15:50.674Z,99.90
2023-03-04T09:18:20.718Z,99.90
2023-03-04T09:20:48.539Z,99.90
2023-03-04T09:23:16.494Z,99.90
2023-03-04T09:25:46.325Z,99.90
2023-03-04T09:28:15.468Z,99.90
2023-03-04T09:30:43.649Z,99.90
2023-03-04T09:33:11.674Z,99.90
2023-03-04T09:35:39.325Z,99.90
2023-03-04T09:38:07.142Z,99.90
2023-03-04T09:40:46.539Z,99.90
2023-03-04T09:43:29.958Z,99.90
2023-03-04T09:46:03.210Z,99.90
2023-03-04T09:48:47.617Z,99.90
2023-03-04T09:51:19.998Z,99.90
2023-03-04T09:54:18.408Z,99.90
2023-03-04T09:56:45.952Z,99.90
2023-03-04T09:59:31.422Z,99.90
2023-03-04T10:02:03.586Z,99.90
2023-03-04T10:04:41.684Z,99.90
2023-03-04T10:07:25.953Z,97.90
2023-03-04T10:10:04.542Z,95.30
2023-03-04T10:12:37.809Z,94.90
2023-03-04T10:15:18.851Z,94.40
2023-03-04T10:17:53.654Z,93.60
2023-03-04T10:20:47.658Z,91.00
2023-03-04T10:23:22.061Z,90.00
2023-03-04T10:25:54.038Z,90.00
2023-03-04T10:28:27.990Z,86.60
2023-03-04T10:31:36.536Z,86.60
2023-03-04T10:34:05.665Z,84.80
2023-03-04T10:36:55.543Z,84.40
2023-03-04T10:39:34.579Z,83.70
2023-03-04T10:42:14.399Z,81.80
2023-03-04T10:44:59.392Z,80.10
2023-03-04T10:47:32.946Z,77.30
2023-03-04T10:50:05.333Z,79.50
2023-03-04T10:52:41.099Z,78.80
2023-03-04T10:55:41.077Z,77.30
2023-03-04T10:58:18.132Z,77.10
2023-03-04T11:01:06.012Z,78.40
2023-03-04T11:03:36.821Z,76.50
2023-03-04T11:06:12.004Z,76.70
2023-03-04T11:08:41.163Z,77.90
2023-03-04T11:11:37.662Z,77.90
2023-03-04T11:14:29.371Z,75.80
2023-03-04T11:17:03.464Z,77.20
2023-03-04T11:19:38.165Z,77.00
2023-03-04T11:22:06.267Z,77.30
2023-03-04T11:24:37.742Z,76.20
2023-03-04T11:27:20.926Z,75.60
2023-03-04T11:30:16.497Z,75.80
2023-03-04T11:32:48.006Z,75.90
2023-03-04T11:35:28.448Z,75.20
2023-03-04T11:38:22.523Z,75.00
2023-03-04T11:40:57.032Z,75.70
2023-03-04T11:43:37.373Z,75.40
2023-03-04T11:46:42.450Z,76.30
2023-03-04T11:49:34.156Z,75.30
2023-03-04T11:52:18.628Z,74.90
2023-03-04T11:55:18.130Z,76.30
2023-03-04T11:58:12.498Z,76.30
2023-03-04T12:01:25.846Z,76.80
2023-03-04T12:04:23.693Z,75.60
2023-03-04T12:07:47.425Z,75.70
2023-03-04T12:10:50.953Z,75.50
2023-03-04T12:13:55.644Z,75.30
2023-03-04T12:16:28.238Z,76.20
2023-03-04T12:19:23.192Z,74.90
2023-03-04T12:22:24.834Z,75.70
2023-03-04T12:25:19.491Z,75.50
2023-03-04T12:28:01.024Z,76.30
2023-03-04T12:31:12.744Z,73.90
2023-03-04T12:34:07.978Z,74.90
2023-03-04T12:37:25.675Z,75.50
2023-03-04T12:40:17.243Z,74.20
2023-03-04T12:43:25.012Z,74.80
2023-03-04T12:46:24.699Z,73.60
2023-03-04T12:49:19.471Z,73.30
2023-03-04T12:52:23.370Z,72.50
2023-03-04T12:54:57.866Z,72.60
2023-03-04T12:57:31.582Z,72.10
2023-03-04T13:00:38.850Z,71.40
2023-03-04T13:03:33.654Z,72.00
2023-03-04T13:06:16.588Z,72.40
2023-03-04T13:09:37.566Z,70.90
2023-03-04T13:12:25.470Z,72.00
2023-03-04T13:15:07.685Z,73.30
2023-03-04T13:17:59.140Z,73.00
2023-03-04T13:20:41.462Z,73.30
2023-03-04T13:23:08.829Z,73.10
2023-03-04T13:26:08.285Z,73.20
2023-03-04T13:28:37.237Z,72.80
2023-03-04T13:31:09.520Z,72.00
2023-03-04T13:33:36.866Z,72.40
2023-03-04T13:36:25.551Z,71.60
2023-03-04T13:39:27.742Z,72.70
2023-03-04T13:41:56.884Z,72.10
2023-03-04T13:44:44.021Z,72.70
2023-03-04T13:47:20.071Z,71.20
2023-03-04T13:49:47.714Z,71.50
2023-03-04T13:52:40.388Z,72.60
2023-03-04T13:55:37.511Z,72.30
2023-03-04T13:58:23.029Z,72.10
2023-03-04T14:00:55.270Z,72.90
2023-03-04T14:03:30.363Z,72.40
2023-03-04T14:06:20.994Z,72.40
2023-03-04T14:08:50.248Z,72.20
2023-03-04T14:11:41.736Z,72.80
2023-03-04T14:14:21.234Z,72.60
2023-03-04T14:17:00.017Z,72.30
2023-03-04T14:19:48.443Z,73.00
2023-03-04T14:22:24.536Z,73.40
2023-03-04T14:25:13.548Z,73.40
2023-03-04T14:27:41.584Z,72.80
2023-03-04T14:30:39.532Z,73.40
2023-03-04T14:33:19.682Z,72.50
2023-03-04T14:35:50.803Z,72.80
2023-03-04T14:38:38.072Z,72.90
2023-03-04T14:41:10.375Z,73.00
2023-03-04T14:44:01.467Z,73.20
2023-03-04T14:46:43.058Z,74.30
2023-03-04T14:49:14.436Z,73.00
2023-03-04T14:51:52.189Z,73.20
2023-03-04T14:54:41.475Z,73.20
2023-03-04T14:57:26.446Z,72.80
2023-03-04T14:59:54.778Z,72.70
2023-03-04T15:02:33.580Z,73.30
2023-03-04T15:05:31.911Z,73.80
2023-03-04T15:08:02.655Z,73.80
2023-03-04T15:10:37.959Z,73.80
2023-03-04T15:13:09.131Z,73.50
2023-03-04T15:15:46.316Z,73.80
2023-03-04T15:18:26.232Z,74.30
2023-03-04T15:21:04.576Z,74.00
2023-03-04T15:23:33.776Z,73.70
2023-03-04T15:26:05.705Z,73.60
2023-03-04T15:28:39.130Z,73.90
2023-03-04T15:31:15.474Z,73.80
2023-03-04T15:33:43.048Z,73.70
2023-03-04T15:36:18.105Z,73.20
2023-03-04T15:38:53.001Z,73.30
2023-03-04T15:41:27.098Z,73.20
2023-03-04T15:43:54.734Z,73.60
2023-03-04T15:46:22.440Z,74.00
2023-03-04T15:48:50.098Z,74.50
2023-03-04T15:51:23.057Z,74.20
2023-03-04T15:53:58.902Z,74.60
2023-03-04T15:56:33.005Z,74.20
2023-03-04T15:59:10.912Z,74.30
2023-03-04T16:01:38.708Z,74.20
2023-03-04T16:04:06.418Z,74.30
2023-03-04T16:06:34.017Z,74.60
2023-03-04T16:09:01.543Z,75.10
2023-03-04T16:11:33.928Z,75.00
2023-03-04T16:14:01.519Z,74.70
2023-03-04T16:16:29.587Z,74.40
2023-03-04T16:18:57.109Z,74.70
2023-03-04T16:21:24.871Z,74.90
2023-03-04T16:23:54.332Z,75.20
2023-03-04T16:26:25.778Z,75.30
2023-03-04T16:28:54.225Z,75.10
2023-03-04T16:31:22.631Z,74.90
2023-03-04T16:33:50.201Z,74.90
2023-03-04T16:36:25.669Z,75.20
2023-03-04T16:38:56.253Z,74.50
2023-03-04T16:41:28.301Z,74.70
2023-03-04T16:43:58.731Z,75.00
2023-03-04T16:46:26.275Z,75.30
2023-03-04T16:48:53.985Z,75.20
2023-03-04T16:51:23.304Z,75.20
2023-03-04T16:53:59.991Z,74.90
2023-03-04T16:56:28.096Z,75.60
2023-03-04T16:58:55.625Z,75.70
2023-03-04T17:01:28.974Z,75.50
2023-03-04T17:03:57.066Z,74.90
2023-03-04T17:06:24.956Z,74.90
2023-03-04T17:08:52.444Z,75.20
2023-03-04T17:11:23.456Z,75.20
2023-03-04T17:13:51.525Z,75.50
2023-03-04T17:16:19.287Z,75.10
2023-03-04T17:18:46.932Z,75.10
2023-03-04T17:21:18.870Z,75.20
2023-03-04T17:23:46.456Z,75.30
2023-03-04T17:26:15.483Z,75.50
2023-03-04T17:28:43.221Z,75.40
2023-03-04T17:31:14.010Z,75.30
2023-03-04T17:33:43.764Z,75.40
2023-03-04T17:36:12.623Z,75.10
2023-03-04T17:38:40.574Z,74.70
2023-03-04T17:41:15.802Z,74.80
2023-03-04T17:43:49.535Z,74.30
2023-03-04T17:46:21.926Z,74.30
2023-03-04T17:48:51.699Z,74.50
2023-03-04T17:51:19.200Z,74.20
2023-03-04T17:53:46.701Z,74.10
2023-03-04T17:56:14.189Z,74.30
2023-03-04T17:58:41.969Z,74.10
2023-03-04T18:01:19.364Z,74.00
2023-03-04T18:03:47.497Z,74.00
2023-03-04T18:06:15.230Z,74.20
2023-03-04T18:08:43.164Z,74.30
2023-03-04T18:11:11.768Z,74.30
2023-03-04T18:13:43.710Z,74.30
2023-03-04T18:16:15.660Z,74.30
2023-03-04T18:18:43.654Z,74.10
2023-03-04T18:21:13.479Z,74.30
2023-03-04T18:23:40.969Z,74.40
2023-03-04T18:26:08.498Z,74.30
2023-03-04T18:28:36.136Z,74.30
2023-03-04T18:31:04.165Z,73.90
2023-03-04T18:33:33.426Z,74.10
2023-03-04T18:36:05.520Z,73.70
2023-03-04T18:38:33.465Z,73.90
2023-03-04T18:41:06.494Z,74.10
2023-03-04T18:43:35.059Z,73.80
2023-03-04T18:46:21.156Z,73.60
2023-03-04T18:48:53.361Z,73.60
2023-03-04T18:51:21.382Z,73.70
2023-03-04T18:53:48.864Z,73.80
2023-03-04T18:56:23.317Z,73.60
2023-03-04T18:58:51.568Z,73.60
2023-03-04T19:01:21.939Z,73.80
2023-03-04T19:03:50.521Z,73.30
2023-03-04T19:06:18.573Z,73.30
2023-03-04T19:08:46.136Z,73.30
2023-03-04T19:11:14.618Z,73.30
2023-03-04T19:13:42.129Z,73.00
2023-03-04T19:16:09.636Z,72.70
2023-03-04T19:18:37.241Z,72.70
2023-03-04T19:21:05.622Z,72.80
2023-03-04T19:23:33.262Z,72.70
2023-03-04T19:26:01.075Z,72.60
2023-03-04T19:28:28.550Z,72.80
2023-03-04T19:30:59.153Z,72.40
2023-03-04T19:33:26.922Z,72.80
2023-03-04T19:35:54.489Z,72.40
2023-03-04T19:38:22.337Z,72.50
2023-03-04T19:40:49.846Z,72.50
2023-03-04T19:43:17.347Z,72.20
2023-03-04T19:45:56.352Z,72.30
2023-03-04T19:48:24.362Z,72.30
2023-03-04T19:50:51.953Z,72.20
2023-03-04T19:53:19.530Z,72.00
2023-03-04T19:55:49.222Z,72.20
2023-03-04T19:58:16.863Z,72.20
2023-03-04T20:00:45.279Z,72.20
2023-03-04T20:03:13.418Z,72.00
2023-03-04T20:05:41.149Z,72.00
2023-03-04T20:08:08.645Z,72.20
2023-03-04T20:10:37.542Z,72.20
2023-03-04T20:13:07.688Z,71.90
2023-03-04T20:15:35.669Z,72.10
2023-03-04T20:18:04.018Z,72.20
2023-03-04T20:20:31.868Z,72.30
2023-03-04T20:22:59.422Z,72.00
2023-03-04T20:25:28.955Z,72.20
2023-03-04T20:27:57.405Z,72.20
2023-03-04T20:30:25.160Z,72.10
2023-03-04T20:32:52.665Z,71.90
2023-03-04T20:35:20.569Z,71.80
2023-03-04T20:37:48.084Z,72.00
2023-03-04T20:40:15.595Z,72.10
2023-03-04T20:42:43.213Z,72.00
2023-03-04T20:45:11.430Z,72.20
2023-03-04T20:47:39.740Z,72.20
2023-03-04T20:50:08.047Z,72.10
2023-03-04T20:52:35.517Z,72.20
2023-03-04T20:55:03.076Z,72.10
2023-03-04T20:57:30.597Z,72.00
2023-03-04T20:59:58.409Z,72.00
2023-03-04T21:02:26.347Z,72.10
2023-03-04T21:04:55.452Z,72.30
2023-03-04T21:07:24.265Z,72.00
2023-03-04T21:09:51.756Z,72.50
2023-03-04T21:12:19.766Z,72.50
2023-03-04T21:14:47.254Z,73.00
2023-03-04T21:17:15.033Z,72.70
2023-03-04T21:19:43.456Z,72.40
2023-03-04T21:22:17.506Z,72.70
2023-03-04T21:24:45.467Z,72.70
2023-03-04T21:27:14.913Z,72.30
2023-03-04T21:29:42.409Z,73.00
2023-03-04T21:32:26.795Z,73.20
2023-03-04T21:34:56.110Z,72.90
2023-03-04T21:37:25.396Z,73.50
2023-03-04T21:39:54.238Z,73.20
2023-03-04T21:42:22.410Z,73.30
2023-03-04T21:44:51.459Z,73.10
2023-03-04T21:47:21.055Z,73.10
2023-03-04T21:49:48.647Z,73.00
2023-03-04T21:52:18.208Z,73.10
2023-03-04T21:54:45.852Z,73.00
2023-03-04T21:57:14.246Z,73.00
2023-03-04T21:59:42.177Z,73.10
2023-03-04T22:02:16.823Z,73.10
2023-03-04T22:04:44.610Z,73.20
2023-03-04T22:07:12.933Z,73.10
2023-03-04T22:09:40.497Z,73.00
2023-03-04T22:12:08.196Z,72.90
2023-03-04T22:14:35.704Z,72.60
2023-03-04T22:17:03.370Z,72.60
2023-03-04T22:19:32.500Z,72.60
2023-03-04T22:22:00.234Z,72.50
2023-03-04T22:24:28.271Z,72.60
2023-03-04T22:26:57.528Z,72.60
2023-03-04T22:29:25.063Z,72.50
2023-03-04T22:31:52.675Z,72.20
2023-03-04T22:34:20.385Z,72.30
2023-03-04T22:36:49.140Z,72.40
2023-03-04T22:39:22.794Z,73.00
2023-03-04T22:41:50.318Z,72.90
2023-03-04T22:44:18.143Z,72.90
2023-03-04T22:46:45.635Z,72.90
2023-03-04T22:49:14.558Z,72.90
2023-03-04T22:51:44.285Z,72.90
2023-03-04T22:54:15.136Z,73.10
2023-03-04T22:56:42.832Z,73.50
2023-03-04T22:59:10.443Z,73.40
2023-03-04T23:01:37.964Z,73.40
2023-03-04T23:04:05.661Z,73.70
2023-03-04T23:06:33.314Z,74.00
2023-03-04T23:09:00.840Z,73.80
2023-03-04T23:11:35.464Z,74.20
2023-03-04T23:14:06.813Z,74.50
2023-03-04T23:16:43.043Z,74.60
2023-03-04T23:19:16.632Z,74.70
2023-03-04T23:21:44.596Z,74.60
2023-03-04T23:24:13.460Z,74.30
2023-03-04T23:26:43.019Z,74.00
2023-03-04T23:29:14.104Z,74.10
2023-03-04T23:31:42.559Z,73.80
2023-03-04T23:34:11.188Z,74.00
2023-03-04T23:36:39.226Z,74.20
2023-03-04T23:39:07.508Z,74.30
2023-03-04T23:41:35.894Z,74.20
2023-03-04T23:44:04.574Z,74.40
2023-03-04T23:46:32.345Z,74.30
2023-03-04T23:48:59.892Z,74.30
2023-03-04T23:51:29.346Z,74.30
2023-03-04T23:53:57.872Z,74.40
2023-03-04T23:56:31.200Z,74.20
2023-03-04T23:58:59.794Z,74.60
